Time;durP1;ratioP1;P1;durP2;ratioP2;P2;SDS_P1;SDS_P2;PMS_P1;PMS_P2;Temp;Humidity;BMP_temperature;BMP_pressure;BME280_temperature;BME280_humidity;BME280_pressure;Samples;Min_cycle;Max_cycle;Signal;HPM_P1;HPM_P2
2023/05/13 00:02:24;;;;;;;3.90;2.35;;;19.50;72.90;;;;;;5042689;28;45357;-72
2023/05/13 00:04:51;;;;;;;2.70;2.17;;;19.50;72.90;;;;;;5043128;28;45191;-73
2023/05/13 00:07:19;;;;;;;2.92;2.13;;;19.50;73.00;;;;;;5042458;28;45239;-72
2023/05/13 00:09:46;;;;;;;3.22;2.50;;;19.50;73.10;;;;;;5042702;28;47545;-72
2023/05/13 00:12:12;;;;;;;2.72;2.10;;;19.50;73.10;;;;;;5042205;28;45854;-72
2023/05/13 00:14:39;;;;;;;2.35;2.15;;;19.50;73.10;;;;;;5042887;28;45331;-72
2023/05/13 00:17:06;;;;;;;3.47;2.03;;;19.50;73.10;;;;;;5042289;28;45372;-73
2023/05/13 00:19:33;;;;;;;3.15;2.40;;;19.50;73.00;;;;;;5042705;28;47297;-72
2023/05/13 00:22:00;;;;;;;2.75;2.10;;;19.50;73.00;;;;;;5042545;28;45993;-73
2023/05/13 00:24:28;;;;;;;3.33;1.98;;;19.50;73.10;;;;;;5042867;28;45225;-72
2023/05/13 00:26:55;;;;;;;3.58;2.38;;;19.50;72.90;;;;;;5042261;28;45306;-72
2023/05/13 00:29:21;;;;;;;3.22;2.30;;;19.50;72.90;;;;;;5041843;27;46273;-73
2023/05/13 00:31:48;;;;;;;2.40;2.00;;;19.50;72.90;;;;;;5042184;27;45276;-72
2023/05/13 00:34:15;;;;;;;2.00;1.80;;;19.50;73.00;;;;;;5042087;28;45199;-72
2023/05/13 00:36:42;;;;;;;2.72;2.30;;;19.50;72.90;;;;;;5042229;28;45314;-72
2023/05/13 00:39:10;;;;;;;3.55;2.30;;;19.50;72.90;;;;;;5042072;28;48143;-73
2023/05/13 00:41:38;;;;;;;3.53;2.60;;;19.50;72.80;;;;;;5042107;28;45401;-72
2023/05/13 00:44:05;;;;;;;2.85;2.20;;;19.50;72.80;;;;;;5042257;28;45406;-73
2023/05/13 00:46:32;;;;;;;3.40;2.45;;;19.50;72.70;;;;;;5042024;28;45213;-72
2023/05/13 00:49:00;;;;;;;3.35;2.38;;;19.50;73.70;;;;;;5041723;27;45421;-73
2023/05/13 00:51:27;;;;;;;4.03;2.63;;;19.50;72.80;;;;;;5040582;28;45354;-72
2023/05/13 00:53:54;;;;;;;3.22;2.60;;;19.50;72.70;;;;;;5042264;28;45221;-72
2023/05/13 00:56:21;;;;;;;3.00;2.45;;;19.50;72.80;;;;;;5042040;28;45419;-72
2023/05/13 00:58:49;;;;;;;3.55;2.58;;;19.50;72.80;;;;;;5042121;27;45718;-72
2023/05/13 01:01:24;;;;;;;6.38;2.60;;;19.50;72.80;;;;;;5041821;28;45906;-72
2023/05/13 01:04:00;;;;;;;4.55;2.60;;;19.50;72.90;;;;;;5042346;28;45289;-72
2023/05/13 01:06:33;;;;;;;3.97;2.30;;;19.50;72.80;;;;;;5022917;28;45252;-72
2023/05/13 01:09:07;;;;;;;3.40;2.30;;;19.50;72.80;;;;;;5042325;28;45491;-73
2023/05/13 01:11:41;;;;;;;3.95;2.58;;;19.50;72.70;;;;;;5042007;28;45371;-72
2023/05/13 01:14:14;;;;;;;3.42;2.38;;;19.50;72.60;;;;;;5041835;28;45398;-72
2023/05/13 01:16:49;;;;;;;3.90;2.50;;;19.50;72.60;;;;;;5040614;28;45352;-73
2023/05/13 01:19:32;;;;;;;3.13;2.30;;;19.50;72.60;;;;;;5042072;28;47398;-72
2023/05/13 01:22:00;;;;;;;3.00;2.38;;;19.50;72.40;;;;;;5041646;28;45338;-73
2023/05/13 01:24:27;;;;;;;3.55;2.45;;;19.40;72.30;;;;;;5041790;28;45258;-73
2023/05/13 01:26:54;;;;;;;3.30;2.35;;;19.50;72.40;;;;;;5041951;28;45466;-73
2023/05/13 01:29:21;;;;;;;3.42;2.58;;;19.50;72.40;;;;;;5041694;28;45410;-73
2023/05/13 01:31:50;;;;;;;3.90;2.40;;;19.40;72.20;;;;;;5041613;28;45382;-73
2023/05/13 01:34:19;;;;;;;3.22;2.35;;;19.40;72.30;;;;;;5041569;28;45465;-73
2023/05/13 01:36:47;;;;;;;2.92;2.17;;;19.50;72.40;;;;;;5041950;28;45475;-73
2023/05/13 01:39:16;;;;;;;2.67;2.22;;;19.50;72.60;;;;;;5041379;28;47797;-72
2023/05/13 01:41:44;;;;;;;2.47;1.98;;;19.40;72.50;;;;;;5041589;28;45243;-72
2023/05/13 01:44:11;;;;;;;4.00;2.30;;;19.50;72.40;;;;;;5041422;28;45438;-73
2023/05/13 01:46:39;;;;;;;4.05;2.45;;;19.50;72.60;;;;;;5040423;28;45506;-73
2023/05/13 01:49:07;;;;;;;3.75;2.53;;;19.40;73.50;;;;;;5041326;28;47345;-73
2023/05/13 01:51:35;;;;;;;4.00;2.90;;;19.40;73.50;;;;;;5039265;28;45528;-73
2023/05/13 01:54:02;;;;;;;2.97;2.20;;;19.50;72.50;;;;;;5041136;27;45313;-73
2023/05/13 01:56:31;;;;;;;4.15;2.50;;;19.50;72.40;;;;;;5041712;28;45293;-73
2023/05/13 01:58:57;;;;;;;3.00;2.38;;;19.40;72.20;;;;;;5040945;28;48368;-73
2023/05/13 02:01:24;;;;;;;3.20;2.35;;;19.40;72.10;;;;;;5040013;28;45285;-73
2023/05/13 02:03:51;;;;;;;3.80;2.40;;;19.40;72.10;;;;;;5041308;28;45270;-73
2023/05/13 02:06:18;;;;;;;4.13;2.55;;;19.50;72.20;;;;;;5038484;28;45582;-73
2023/05/13 02:08:45;;;;;;;3.88;2.58;;;19.40;72.10;;;;;;5035077;28;48612;-73
2023/05/13 02:11:12;;;;;;;3.78;2.45;;;19.50;72.10;;;;;;5041272;28;45300;-73
2023/05/13 02:13:40;;;;;;;3.97;2.67;;;19.40;71.90;;;;;;5041134;28;45437;-72
2023/05/13 02:16:07;;;;;;;3.85;2.83;;;19.40;72.10;;;;;;5040658;28;45686;-72
2023/05/13 02:18:34;;;;;;;3.72;2.45;;;19.40;71.90;;;;;;5040774;28;47225;-72
2023/05/13 02:21:01;;;;;;;7.13;2.67;;;19.40;71.90;;;;;;5041229;28;45232;-73
2023/05/13 02:23:27;;;;;;;6.88;2.40;;;19.40;72.00;;;;;;5024597;28;45165;-72
2023/05/13 02:25:54;;;;;;;3.75;2.65;;;19.40;72.10;;;;;;5040765;28;45567;-72
2023/05/13 02:28:21;;;;;;;4.32;2.75;;;19.50;72.20;;;;;;5040452;28;46544;-72
2023/05/13 02:30:49;;;;;;;3.35;2.40;;;19.40;72.20;;;;;;5040667;28;45240;-72
2023/05/13 02:33:16;;;;;;;4.45;2.97;;;19.40;72.20;;;;;;5040962;28;45380;-73
2023/05/13 02:35:43;;;;;;;2.92;2.40;;;19.40;72.20;;;;;;5040590;28;45288;-72
2023/05/13 02:38:10;;;;;;;4.00;2.78;;;19.40;72.20;;;;;;5040269;28;48265;-73
2023/05/13 02:40:37;;;;;;;4.00;2.58;;;19.50;73.30;;;;;;5040390;28;45346;-72
2023/05/13 02:43:03;;;;;;;3.75;2.40;;;19.40;72.00;;;;;;5040636;28;45395;-73
2023/05/13 02:45:30;;;;;;;3.70;2.60;;;19.50;71.90;;;;;;5040457;28;45403;-73
2023/05/13 02:47:59;;;;;;;5.07;2.60;;;19.40;71.90;;;;;;5039997;28;48091;-73
2023/05/13 02:50:25;;;;;;;4.10;2.70;;;19.40;71.80;;;;;;5039918;28;45510;-73
2023/05/13 02:52:52;;;;;;;3.90;2.58;;;19.40;72.10;;;;;;5039174;28;45359;-72
2023/05/13 02:55:19;;;;;;;4.82;2.80;;;19.40;72.10;;;;;;5040527;28;45278;-73
2023/05/13 02:57:46;;;;;;;3.10;2.70;;;19.40;72.20;;;;;;5040549;28;47489;-72
2023/05/13 03:00:14;;;;;;;4.80;2.65;;;19.40;72.20;;;;;;5040267;28;45598;-72
2023/05/13 03:02:40;;;;;;;3.78;2.85;;;19.40;72.20;;;;;;5040935;28;45268;-73
2023/05/13 03:05:09;;;;;;;5.57;2.35;;;19.40;72.30;;;;;;5040492;28;45483;-73
2023/05/13 03:07:36;;;;;;;4.85;2.65;;;19.30;72.20;;;;;;5040602;28;46367;-73
2023/05/13 03:10:03;;;;;;;3.22;2.53;;;19.40;72.30;;;;;;5040480;28;45210;-72
2023/05/13 03:12:30;;;;;;;2.97;2.35;;;19.40;72.30;;;;;;5041551;28;45258;-73
2023/05/13 03:14:56;;;;;;;4.20;2.22;;;19.40;72.20;;;;;;5034694;28;45570;-73
2023/05/13 03:17:24;;;;;;;4.00;2.78;;;19.40;72.20;;;;;;5042153;28;45295;-72
2023/05/13 03:19:51;;;;;;;3.33;2.55;;;19.40;72.20;;;;;;5043188;28;45272;-72
2023/05/13 03:22:19;;;;;;;2.60;2.33;;;19.40;72.20;;;;;;5043244;28;45439;-72
2023/05/13 03:24:46;;;;;;;3.50;2.53;;;19.40;72.20;;;;;;5043509;28;45355;-72
2023/05/13 03:27:12;;;;;;;3.75;2.85;;;19.40;72.20;;;;;;5042511;28;48358;-73
2023/05/13 03:29:39;;;;;;;2.90;2.30;;;19.40;72.10;;;;;;5043197;28;45311;-72
2023/05/13 03:32:07;;;;;;;4.50;2.85;;;19.40;71.90;;;;;;5041977;28;45286;-73
2023/05/13 03:34:35;;;;;;;3.15;2.40;;;19.40;71.90;;;;;;5043340;28;45322;-73
2023/05/13 03:37:01;;;;;;;2.72;2.40;;;19.40;71.90;;;;;;5042293;28;46422;-73
2023/05/13 03:39:30;;;;;;;3.35;2.55;;;19.40;71.90;;;;;;5043456;28;45358;-71
2023/05/13 03:41:56;;;;;;;2.70;2.22;;;19.40;71.90;;;;;;5043474;28;45320;-73
2023/05/13 03:44:23;;;;;;;3.40;2.50;;;19.40;71.60;;;;;;5042975;28;45169;-72
2023/05/13 03:46:50;;;;;;;3.88;2.60;;;19.40;71.70;;;;;;5041686;28;48413;-72
2023/05/13 03:49:17;;;;;;;3.22;2.50;;;19.40;71.50;;;;;;5043046;28;45375;-72
2023/05/13 03:51:44;;;;;;;3.85;2.75;;;19.40;71.60;;;;;;5041433;28;45400;-73
2023/05/13 03:54:11;;;;;;;3.53;2.60;;;19.40;71.60;;;;;;5042788;28;45450;-72
2023/05/13 03:56:39;;;;;;;3.05;2.58;;;19.40;71.70;;;;;;5042632;28;46553;-72
2023/05/13 03:59:06;;;;;;;3.38;2.47;;;19.40;71.70;;;;;;5042723;28;45365;-72
2023/05/13 04:01:34;;;;;;;3.15;2.42;;;19.40;71.60;;;;;;5042897;28;45282;-72
2023/05/13 04:04:01;;;;;;;3.10;2.40;;;19.40;71.60;;;;;;5042976;28;45276;-72
2023/05/13 04:06:28;;;;;;;3.55;2.50;;;19.40;71.60;;;;;;5042426;28;46821;-73
2023/05/13 04:08:54;;;;;;;3.25;2.47;;;19.40;71.60;;;;;;5042510;28;45270;-72
2023/05/13 04:11:21;;;;;;;4.40;2.80;;;19.40;71.50;;;;;;5042786;28;45267;-73
2023/05/13 04:13:50;;;;;;;3.33;2.17;;;19.40;71.40;;;;;;5042629;28;45338;-72
2023/05/13 04:16:17;;;;;;;3.45;2.22;;;19.40;71.20;;;;;;5040661;28;48356;-72
2023/05/13 04:18:43;;;;;;;3.22;2.40;;;19.40;71.20;;;;;;5042490;28;45440;-73
2023/05/13 04:21:10;;;;;;;3.13;2.35;;;19.40;71.20;;;;;;5042987;28;45312;-72
2023/05/13 04:23:37;;;;;;;3.13;2.35;;;19.40;71.20;;;;;;5042017;28;45209;-72
2023/05/13 04:26:04;;;;;;;2.90;2.40;;;19.40;71.20;;;;;;5041688;28;46307;-72
2023/05/13 04:28:31;;;;;;;3.40;2.30;;;19.40;71.10;;;;;;5042287;28;45317;-72
2023/05/13 04:30:59;;;;;;;3.60;2.58;;;19.40;71.00;;;;;;5042704;28;45486;-73
2023/05/13 04:33:26;;;;;;;2.70;2.35;;;19.40;71.00;;;;;;5042121;28;45653;-72
2023/05/13 04:35:53;;;;;;;4.38;2.42;;;19.40;71.10;;;;;;5042132;28;48354;-72
2023/05/13 04:38:19;;;;;;;3.15;2.50;;;19.40;71.10;;;;;;5042167;28;45491;-73
2023/05/13 04:40:47;;;;;;;4.20;2.15;;;19.40;71.10;;;;;;5042717;28;45245;-72
2023/05/13 04:43:14;;;;;;;2.95;2.30;;;19.40;71.10;;;;;;5042502;27;45305;-72
2023/05/13 04:45:40;;;;;;;3.45;2.35;;;19.40;71.10;;;;;;5041260;27;45335;-72
2023/05/13 04:48:09;;;;;;;3.50;2.22;;;19.40;71.00;;;;;;5042289;28;45706;-73
2023/05/13 04:50:36;;;;;;;2.72;2.00;;;19.40;71.00;;;;;;5041997;28;45358;-73
2023/05/13 04:53:03;;;;;;;2.50;2.28;;;19.40;71.00;;;;;;5042311;28;45454;-72
2023/05/13 04:55:30;;;;;;;3.33;2.45;;;19.40;70.90;;;;;;5042191;28;47442;-72
2023/05/13 04:57:56;;;;;;;5.10;2.08;;;19.40;70.70;;;;;;5042304;28;45204;-73
2023/05/13 05:00:24;;;;;;;4.97;2.67;;;19.40;70.60;;;;;;5042109;27;45221;-72
2023/05/13 05:02:50;;;;;;;4.07;2.47;;;19.40;70.70;;;;;;5042400;28;45458;-72
2023/05/13 05:05:19;;;;;;;3.17;2.47;;;19.40;70.60;;;;;;5041310;28;48401;-72
2023/05/13 05:07:45;;;;;;;3.58;2.60;;;19.40;70.50;;;;;;5042288;28;45402;-72
2023/05/13 05:10:14;;;;;;;4.05;2.92;;;19.40;70.30;;;;;;5042276;28;45286;-72
2023/05/13 05:12:41;;;;;;;4.22;2.53;;;19.40;70.30;;;;;;5042064;28;45410;-72
2023/05/13 05:15:14;;;;;;;4.82;2.60;;;19.40;70.40;;;;;;5041820;28;46643;-72
2023/05/13 05:17:41;;;;;;;4.35;3.08;;;19.40;70.30;;;;;;5041780;28;45963;-72
2023/05/13 05:20:09;;;;;;;3.67;2.90;;;19.40;70.30;;;;;;5042475;28;45301;-72
2023/05/13 05:22:37;;;;;;;3.55;2.28;;;19.40;70.30;;;;;;5042222;28;45185;-72
2023/05/13 05:25:04;;;;;;;3.10;2.70;;;19.40;70.40;;;;;;5041581;28;47556;-73
2023/05/13 05:27:31;;;;;;;3.35;2.45;;;19.40;70.50;;;;;;5041925;28;45368;-73
2023/05/13 05:29:58;;;;;;;3.33;2.50;;;19.40;70.60;;;;;;5041888;28;45242;-73
2023/05/13 05:32:25;;;;;;;3.97;2.50;;;19.40;70.50;;;;;;5041927;28;45342;-72
2023/05/13 05:34:51;;;;;;;3.03;2.47;;;19.40;70.50;;;;;;5041177;28;48066;-72
2023/05/13 05:37:18;;;;;;;3.35;2.33;;;19.40;70.50;;;;;;5039977;28;45446;-72
2023/05/13 05:39:46;;;;;;;3.75;2.83;;;19.40;70.50;;;;;;5041912;28;45293;-72
2023/05/13 05:42:13;;;;;;;3.35;2.47;;;19.40;70.30;;;;;;5041807;28;45358;-72
2023/05/13 05:44:40;;;;;;;2.85;2.45;;;19.40;70.40;;;;;;5041178;28;46628;-72
2023/05/13 05:47:07;;;;;;;3.42;2.58;;;19.40;70.30;;;;;;5040215;28;46183;-72
2023/05/13 05:49:33;;;;;;;3.55;2.60;;;19.40;70.30;;;;;;5041702;28;45193;-72
2023/05/13 05:52:00;;;;;;;3.92;2.70;;;19.40;70.10;;;;;;5039532;28;45519;-73
2023/05/13 05:54:27;;;;;;;3.53;2.60;;;19.40;70.10;;;;;;5040682;28;48335;-72
2023/05/13 05:56:55;;;;;;;4.65;2.97;;;19.40;70.10;;;;;;5041347;28;45411;-73
2023/05/13 05:59:22;;;;;;;5.15;2.78;;;19.40;70.10;;;;;;5041500;28;45422;-72
2023/05/13 06:01:49;;;;;;;5.95;3.22;;;19.40;70.00;;;;;;5041124;28;45622;-72
2023/05/13 06:04:16;;;;;;;3.58;2.50;;;19.40;70.00;;;;;;5040979;28;45702;-72
2023/05/13 06:06:43;;;;;;;5.35;3.03;;;19.40;70.20;;;;;;5041062;28;45403;-72
2023/05/13 06:09:10;;;;;;;2.88;2.58;;;19.40;70.30;;;;;;5041261;28;45423;-73
2023/05/13 06:11:36;;;;;;;3.17;2.47;;;19.40;70.30;;;;;;5041400;27;45446;-72
2023/05/13 06:14:05;;;;;;;5.55;2.65;;;19.40;70.40;;;;;;5040756;28;47953;-73
2023/05/13 06:16:32;;;;;;;4.00;2.70;;;19.40;70.40;;;;;;5041155;27;45332;-73
2023/05/13 06:18:58;;;;;;;3.53;2.50;;;19.40;70.40;;;;;;5041107;28;45243;-72
2023/05/13 06:21:25;;;;;;;5.55;2.55;;;19.40;70.50;;;;;;5041103;28;45498;-72
2023/05/13 06:23:52;;;;;;;4.13;2.95;;;19.40;70.50;;;;;;5040682;28;46292;-72
2023/05/13 06:26:19;;;;;;;4.72;2.80;;;19.40;70.50;;;;;;5040207;28;45282;-72
2023/05/13 06:28:46;;;;;;;3.63;2.70;;;19.40;70.40;;;;;;5041276;28;45216;-73
2023/05/13 06:31:15;;;;;;;3.92;2.78;;;19.40;70.30;;;;;;5041245;28;45328;-72
2023/05/13 06:33:41;;;;;;;4.80;2.50;;;19.40;70.30;;;;;;5040645;28;47097;-73
2023/05/13 06:36:08;;;;;;;3.03;2.55;;;19.40;70.40;;;;;;5040426;28;45273;-73
2023/05/13 06:38:35;;;;;;;4.10;2.60;;;19.40;71.40;;;;;;5041303;28;45194;-72
2023/05/13 06:41:02;;;;;;;4.40;2.80;;;19.40;70.40;;;;;;5041231;28;45670;-73
2023/05/13 06:43:29;;;;;;;4.97;2.53;;;19.40;70.30;;;;;;5040331;28;46542;-72
2023/05/13 06:45:55;;;;;;;3.60;2.42;;;19.40;70.30;;;;;;5038973;28;45302;-72
2023/05/13 06:48:23;;;;;;;4.30;2.80;;;19.40;70.30;;;;;;5042755;28;45394;-72
2023/05/13 06:50:50;;;;;;;4.72;2.58;;;19.40;70.40;;;;;;5041954;28;45486;-73
2023/05/13 06:53:17;;;;;;;3.17;2.42;;;19.40;70.60;;;;;;5043363;28;45325;-72
2023/05/13 06:55:44;;;;;;;2.80;2.30;;;19.40;70.50;;;;;;5035978;28;45303;-72
2023/05/13 06:58:11;;;;;;;4.75;2.33;;;19.50;70.70;;;;;;5041462;28;45241;-73
2023/05/13 07:00:39;;;;;;;3.55;2.75;;;19.40;70.60;;;;;;5044069;28;45216;-70
2023/05/13 07:03:07;;;;;;;3.35;2.50;;;19.40;70.60;;;;;;5043266;27;45512;-73
2023/05/13 07:05:35;;;;;;;2.70;2.30;;;19.40;70.60;;;;;;5043139;28;45209;-73
2023/05/13 07:08:05;;;;;;;2.45;2.10;;;19.40;70.60;;;;;;5043505;28;45145;-72
2023/05/13 07:10:33;;;;;;;3.65;2.80;;;19.40;70.70;;;;;;5111434;27;45679;-72
2023/05/13 07:13:00;;;;;;;3.92;2.65;;;19.40;70.70;;;;;;5043130;28;46575;-72
2023/05/13 07:15:27;;;;;;;3.22;1.83;;;19.40;70.70;;;;;;5042683;28;45252;-73
2023/05/13 07:17:54;;;;;;;5.15;2.50;;;19.40;70.70;;;;;;5043838;28;45317;-73
2023/05/13 07:20:21;;;;;;;3.28;2.67;;;19.40;70.80;;;;;;5043485;28;45713;-73
2023/05/13 07:22:49;;;;;;;4.57;2.38;;;19.40;70.80;;;;;;5042981;28;47873;-72
2023/05/13 07:25:17;;;;;;;3.13;2.65;;;19.50;70.80;;;;;;5042487;28;45244;-73
2023/05/13 07:27:44;;;;;;;4.55;2.83;;;19.40;70.70;;;;;;5043674;28;45248;-73
2023/05/13 07:30:11;;;;;;;3.25;2.30;;;19.40;70.70;;;;;;5043181;28;45475;-73
2023/05/13 07:32:38;;;;;;;3.05;2.20;;;19.40;70.70;;;;;;5042880;28;47192;-73
2023/05/13 07:35:06;;;;;;;3.35;2.55;;;19.50;70.80;;;;;;5042843;28;45199;-73
2023/05/13 07:37:32;;;;;;;3.28;2.40;;;19.40;70.80;;;;;;5042769;28;45374;-73
2023/05/13 07:40:01;;;;;;;7.70;2.20;;;19.50;70.90;;;;;;5043357;28;45539;-73
2023/05/13 07:42:28;;;;;;;4.07;2.72;;;19.50;70.80;;;;;;5042605;28;45318;-73
2023/05/13 07:44:55;;;;;;;2.55;2.20;;;19.50;70.90;;;;;;5042796;27;45316;-72
2023/05/13 07:47:22;;;;;;;2.42;1.98;;;19.50;70.90;;;;;;5042227;28;45461;-73
2023/05/13 07:49:49;;;;;;;2.90;2.20;;;19.50;70.90;;;;;;5043181;28;45486;-72
2023/05/13 07:52:16;;;;;;;3.85;2.15;;;19.50;71.00;;;;;;5041779;28;46439;-71
2023/05/13 07:54:43;;;;;;;3.38;2.03;;;19.50;71.00;;;;;;5042812;28;45412;-73
2023/05/13 07:57:11;;;;;;;3.72;2.53;;;19.50;71.00;;;;;;5042333;28;45437;-73
2023/05/13 07:59:38;;;;;;;3.50;2.42;;;19.50;71.00;;;;;;5041711;27;45568;-73
2023/05/13 08:02:05;;;;;;;2.95;2.17;;;19.50;71.00;;;;;;5042324;28;48464;-72
2023/05/13 08:04:32;;;;;;;4.45;2.60;;;19.50;71.00;;;;;;5042322;28;45405;-73
2023/05/13 08:06:59;;;;;;;3.17;2.30;;;19.50;71.00;;;;;;5042858;28;45260;-72
2023/05/13 08:09:25;;;;;;;4.30;2.42;;;19.50;71.00;;;;;;5042680;28;45302;-72
2023/05/13 08:11:53;;;;;;;2.40;2.10;;;19.50;71.00;;;;;;5042575;28;47375;-72
2023/05/13 08:14:21;;;;;;;3.55;2.30;;;19.50;70.90;;;;;;5041199;28;45358;-72
2023/05/13 08:16:48;;;;;;;3.67;2.17;;;19.50;70.90;;;;;;5042599;28;45414;-72
2023/05/13 08:19:15;;;;;;;2.63;2.15;;;19.50;71.00;;;;;;5042677;28;45641;-73
2023/05/13 08:21:42;;;;;;;2.90;2.22;;;19.50;71.00;;;;;;5042596;28;45249;-72
2023/05/13 08:24:09;;;;;;;2.42;2.20;;;19.50;71.00;;;;;;5042062;28;45270;-73
2023/05/13 08:26:37;;;;;;;2.40;1.80;;;19.50;71.00;;;;;;5042406;28;45295;-73
2023/05/13 08:29:03;;;;;;;3.30;2.30;;;19.50;71.00;;;;;;5042766;28;45252;-72
2023/05/13 08:31:32;;;;;;;3.38;2.45;;;19.50;71.00;;;;;;5042373;28;46301;-73
2023/05/13 08:33:58;;;;;;;3.45;2.17;;;19.50;71.00;;;;;;5042364;28;45350;-72
2023/05/13 08:36:25;;;;;;;2.90;2.25;;;19.50;71.00;;;;;;5042382;28;45148;-72
2023/05/13 08:38:52;;;;;;;2.30;2.05;;;19.50;71.00;;;;;;5042809;28;45355;-73
2023/05/13 08:41:21;;;;;;;3.28;2.45;;;19.50;71.00;;;;;;5042840;28;47379;-71
2023/05/13 08:43:49;;;;;;;3.13;2.17;;;19.50;71.00;;;;;;5042498;28;45183;-72
2023/05/13 08:46:18;;;;;;;2.33;2.13;;;19.50;71.00;;;;;;5041917;28;45313;-72
2023/05/13 08:48:47;;;;;;;3.20;2.00;;;19.50;71.00;;;;;;5032989;28;45243;-72
2023/05/13 08:51:14;;;;;;;3.20;2.17;;;19.50;71.10;;;;;;5039456;28;46395;-72
2023/05/13 08:53:42;;;;;;;3.15;2.03;;;19.50;71.00;;;;;;5042155;28;45400;-72
2023/05/13 08:56:09;;;;;;;4.15;2.20;;;19.50;71.10;;;;;;5042133;28;45351;-72
2023/05/13 08:58:36;;;;;;;2.88;2.15;;;19.50;71.20;;;;;;5042488;28;45237;-73
2023/05/13 09:01:04;;;;;;;2.90;2.00;;;19.50;71.10;;;;;;5041872;28;48311;-72
2023/05/13 09:03:31;;;;;;;2.28;2.05;;;19.50;71.10;;;;;;5042064;28;45322;-72
2023/05/13 09:06:02;;;;;;;3.53;2.50;;;19.50;71.10;;;;;;5041538;28;45429;-72
2023/05/13 09:08:29;;;;;;;2.47;2.13;;;19.50;71.20;;;;;;5042205;28;45258;-72
2023/05/13 09:10:55;;;;;;;4.05;2.10;;;19.50;71.20;;;;;;5040835;28;47677;-73
2023/05/13 09:13:22;;;;;;;3.38;1.80;;;19.60;72.30;;;;;;5041062;28;45413;-72
2023/05/13 09:15:51;;;;;;;2.00;1.83;;;19.50;71.20;;;;;;5041715;28;45359;-73
2023/05/13 09:18:18;;;;;;;2.53;1.85;;;19.50;71.20;;;;;;5042089;28;45435;-73
2023/05/13 09:20:45;;;;;;;2.08;1.88;;;19.50;71.20;;;;;;5041742;28;45494;-72
2023/05/13 09:23:14;;;;;;;2.90;2.00;;;19.60;71.30;;;;;;5041501;28;45384;-72
2023/05/13 09:25:41;;;;;;;2.78;2.00;;;19.60;71.20;;;;;;5041288;28;45593;-72
2023/05/13 09:28:08;;;;;;;2.13;1.92;;;19.50;71.00;;;;;;5041767;28;45368;-74
2023/05/13 09:30:39;;;;;;;2.75;2.22;;;19.60;71.20;;;;;;5041634;28;45234;-72
2023/05/13 09:33:08;;;;;;;2.38;1.83;;;19.50;71.00;;;;;;5041513;28;45256;-72
2023/05/13 09:35:36;;;;;;;2.45;2.00;;;19.50;71.00;;;;;;5041516;28;45290;-72
2023/05/13 09:38:14;;;;;;;2.38;1.90;;;19.50;71.10;;;;;;5041672;28;45448;-73
2023/05/13 09:40:41;;;;;;;2.58;2.10;;;19.50;71.00;;;;;;5041655;28;47087;-72
2023/05/13 09:43:08;;;;;;;2.10;1.70;;;19.50;71.10;;;;;;5041440;28;45414;-72
2023/05/13 09:45:36;;;;;;;3.10;2.30;;;19.50;71.20;;;;;;5040211;28;45233;-72
2023/05/13 09:48:03;;;;;;;2.50;2.03;;;19.50;71.30;;;;;;5041417;28;45419;-72
2023/05/13 09:50:32;;;;;;;2.08;1.65;;;19.60;71.50;;;;;;5032467;28;47925;-73
2023/05/13 09:53:11;;;;;;;3.28;1.65;;;19.60;71.40;;;;;;5039899;28;45929;-72
2023/05/13 09:55:45;;;;;;;2.17;1.60;;;19.60;71.40;;;;;;5041417;27;45288;-72
2023/05/13 09:58:12;;;;;;;2.20;1.80;;;19.60;71.40;;;;;;5041433;28;45278;-72
2023/05/13 10:00:41;;;;;;;4.15;1.52;;;19.60;71.20;;;;;;5041221;28;47296;-72
2023/05/13 10:03:08;;;;;;;2.35;1.65;;;19.60;71.20;;;;;;5041371;28;45417;-73
2023/05/13 10:05:35;;;;;;;2.58;1.70;;;19.60;71.20;;;;;;5041428;28;45256;-72
2023/05/13 10:08:03;;;;;;;2.38;1.92;;;19.60;71.10;;;;;;5041219;28;45257;-72
2023/05/13 10:10:31;;;;;;;2.97;1.80;;;19.60;71.10;;;;;;5041320;27;45468;-73
2023/05/13 10:13:04;;;;;;;2.45;1.67;;;19.60;71.00;;;;;;5041107;28;45362;-72
2023/05/13 10:15:32;;;;;;;2.00;1.60;;;19.60;71.00;;;;;;5040747;28;45340;-72
2023/05/13 10:17:59;;;;;;;2.00;1.80;;;19.60;71.00;;;;;;5041363;27;45254;-72
2023/05/13 10:20:26;;;;;;;2.47;1.83;;;19.60;71.00;;;;;;5040990;28;45329;-72
2023/05/13 10:22:54;;;;;;;2.63;1.83;;;19.60;71.00;;;;;;5045235;28;45639;-72
2023/05/13 10:25:22;;;;;;;2.42;1.60;;;19.60;71.00;;;;;;5047442;28;45443;-72
2023/05/13 10:27:50;;;;;;;2.22;1.73;;;19.60;71.00;;;;;;5047714;28;45456;-72
2023/05/13 10:30:25;;;;;;;2.38;1.50;;;19.60;70.90;;;;;;5047419;28;46542;-72
2023/05/13 10:32:52;;;;;;;2.22;1.60;;;19.60;70.80;;;;;;5047193;28;45210;-72
2023/05/13 10:35:22;;;;;;;2.78;1.75;;;19.60;70.60;;;;;;5046991;28;45505;-72
2023/05/13 10:37:56;;;;;;;1.70;1.38;;;19.60;70.70;;;;;;5046518;28;45185;-72
2023/05/13 10:40:40;;;;;;;2.17;1.58;;;19.60;70.50;;;;;;5047444;28;45393;-72
2023/05/13 10:43:13;;;;;;;1.55;1.40;;;19.60;70.40;;;;;;5047139;28;46142;-72
2023/05/13 10:45:44;;;;;;;1.38;1.20;;;19.60;70.30;;;;;;5046490;28;45357;-72
2023/05/13 10:48:13;;;;;;;1.98;1.35;;;19.60;70.20;;;;;;5043392;28;45554;-72
2023/05/13 10:50:40;;;;;;;2.50;1.70;;;19.60;70.10;;;;;;5045748;28;48216;-73
2023/05/13 10:53:20;;;;;;;1.50;1.40;;;19.60;70.10;;;;;;5046984;28;45339;-72
2023/05/13 10:55:46;;;;;;;2.25;1.55;;;19.60;70.00;;;;;;5046837;28;45240;-72
2023/05/13 10:58:15;;;;;;;2.28;1.25;;;19.60;69.90;;;;;;5047277;28;45259;-72
2023/05/13 11:00:44;;;;;;;1.88;1.50;;;19.60;69.80;;;;;;5047020;28;48024;-72
2023/05/13 11:03:28;;;;;;;1.73;1.50;;;19.60;69.70;;;;;;5047277;28;45214;-72
2023/05/13 11:06:15;;;;;;;1.67;1.35;;;19.60;69.70;;;;;;5046766;28;45421;-72
2023/05/13 11:08:43;;;;;;;2.00;1.60;;;19.60;69.20;;;;;;5037928;28;45210;-72
2023/05/13 11:11:29;;;;;;;1.63;1.27;;;19.60;69.20;;;;;;5045905;28;47167;-72
2023/05/13 11:14:06;;;;;;;1.40;1.30;;;19.60;68.70;;;;;;5046884;28;45348;-72
2023/05/13 11:16:36;;;;;;;1.83;1.33;;;19.60;68.80;;;;;;5046773;28;45405;-72
2023/05/13 11:19:03;;;;;;;2.13;1.20;;;19.60;68.90;;;;;;5046916;28;45270;-72
2023/05/13 11:21:32;;;;;;;1.83;1.35;;;19.60;69.00;;;;;;5046722;28;45415;-72
2023/05/13 11:24:00;;;;;;;3.20;1.40;;;19.60;69.00;;;;;;5046294;27;45326;-72
2023/05/13 11:26:43;;;;;;;1.63;1.40;;;19.60;69.00;;;;;;5045921;28;45391;-72
2023/05/13 11:29:10;;;;;;;1.42;1.33;;;19.60;68.80;;;;;;5046740;28;45121;-72
2023/05/13 11:31:51;;;;;;;1.40;1.20;;;19.60;68.70;;;;;;5046527;28;47498;-72
2023/05/13 11:34:19;;;;;;;1.63;1.45;;;19.60;68.80;;;;;;5043942;27;45417;-72
2023/05/13 11:36:47;;;;;;;3.80;1.65;;;19.60;68.80;;;;;;5043054;28;45261;-72
2023/05/13 11:39:15;;;;;;;1.92;1.38;;;19.60;68.80;;;;;;5043440;27;45252;-73
2023/05/13 11:41:44;;;;;;;2.10;1.20;;;19.60;68.80;;;;;;5043217;28;47255;-73
2023/05/13 11:44:13;;;;;;;2.63;1.55;;;19.60;68.50;;;;;;5042798;28;45333;-72
2023/05/13 11:46:54;;;;;;;2.70;1.25;;;19.60;68.50;;;;;;5042821;27;45429;-72
2023/05/13 11:49:36;;;;;;;1.58;1.25;;;19.60;68.40;;;;;;5043182;27;45188;-72
2023/05/13 11:52:04;;;;;;;4.90;1.50;;;19.60;68.20;;;;;;5042558;28;47507;-72
2023/05/13 11:54:31;;;;;;;2.35;1.20;;;19.60;68.20;;;;;;5042991;28;45273;-73
2023/05/13 11:56:58;;;;;;;1.50;1.40;;;19.60;68.00;;;;;;5043094;28;45381;-72
2023/05/13 11:59:25;;;;;;;1.90;1.25;;;19.60;68.00;;;;;;5043076;28;45466;-72
2023/05/13 12:02:03;;;;;;;2.03;1.30;;;19.60;67.90;;;;;;5042423;28;46790;-71
2023/05/13 12:04:30;;;;;;;1.83;1.20;;;19.60;68.00;;;;;;5042891;28;46031;-72
2023/05/13 12:06:57;;;;;;;1.50;1.23;;;19.60;68.20;;;;;;5043266;28;45196;-72
2023/05/13 12:09:24;;;;;;;1.83;1.50;;;19.60;68.20;;;;;;5042539;28;45450;-72
2023/05/13 12:11:52;;;;;;;2.05;1.40;;;19.70;68.20;;;;;;5041257;28;46402;-72
2023/05/13 12:14:20;;;;;;;1.30;1.15;;;19.70;68.00;;;;;;5042632;28;45313;-72
2023/05/13 12:16:47;;;;;;;2.25;1.30;;;19.70;68.00;;;;;;5042446;28;45301;-72
2023/05/13 12:19:15;;;;;;;1.30;1.20;;;19.70;68.00;;;;;;5042763;28;45600;-72
2023/05/13 12:21:42;;;;;;;1.40;1.30;;;19.70;67.90;;;;;;5042537;28;47013;-72
2023/05/13 12:24:19;;;;;;;2.05;1.60;;;19.70;67.70;;;;;;5042356;28;45268;-72
2023/05/13 12:26:46;;;;;;;1.40;1.20;;;19.70;67.60;;;;;;5042654;28;45306;-72
2023/05/13 12:29:13;;;;;;;1.67;1.30;;;19.70;67.40;;;;;;5042426;28;45544;-72
2023/05/13 12:31:42;;;;;;;3.63;1.80;;;19.70;67.30;;;;;;5042471;28;46648;-72
2023/05/13 12:34:09;;;;;;;2.47;1.10;;;19.60;67.20;;;;;;5041828;28;45209;-72
2023/05/13 12:36:39;;;;;;;1.83;1.35;;;19.60;67.20;;;;;;5042178;28;45292;-73
2023/05/13 12:39:08;;;;;;;1.40;1.20;;;19.60;67.00;;;;;;5042769;28;45446;-73
2023/05/13 12:41:37;;;;;;;1.50;1.40;;;19.60;67.10;;;;;;5042625;28;47365;-73
2023/05/13 12:44:05;;;;;;;1.30;1.17;;;19.60;67.20;;;;;;5042313;28;45379;-73
2023/05/13 12:46:31;;;;;;;1.70;1.25;;;19.60;67.30;;;;;;5040733;28;45255;-73
2023/05/13 12:49:00;;;;;;;3.00;1.15;;;19.60;67.60;;;;;;5042470;28;45388;-73
2023/05/13 12:51:28;;;;;;;1.30;1.20;;;19.70;67.90;;;;;;5041421;28;47982;-73
2023/05/13 12:53:57;;;;;;;2.67;1.33;;;19.70;67.90;;;;;;5042171;28;45364;-72